Dades meteomassalio
Diari Summary for Gener 25, 2017 Units:  Metric    English   Both
« Previous Day
Next Day »
Diari Semanal Mensual Anual Personalitzat
  Maxima: Minima: Mijana:
Temperatura: 9.2 °C -1.6 °C 4.9 °C
Rosada: -0.1 °C -3.7 °C -2.1 °C
Humitat: 88 % 44 % 62 %
Velocitat del vent: 29.6 km/h 0.0 km/h 10.3 km/h
Racha vent: 29.6 km/h - -
Vent:- - WNW
Pressio: 1023.2 hPa 1018.5 hPa -
Pluja: 0.0 mm    
Historical Graphs
 
 
Tabular Data for Gener 25, 2017
Time Temperature Dew Point Pressure Wind Wind Speed Wind Gust Humidity Rainfall Rate (Hourly) solar Conditions
00:02 6.4 °C -0.1 °C 1023.2 hPa West 12.9 km/h 12.9 km/h 63 % 0.0 mm 0.0 W/m2 CLR
00:07 6.5 °C -0.3 °C 1023.2 hPa West 29.6 km/h 29.6 km/h 62 % 0.0 mm 0.0 W/m2 CLR
00:12 6.5 °C -0.3 °C 1023.2 hPa West 25.9 km/h 25.9 km/h 62 % 0.0 mm 0.0 W/m2 CLR
00:17 6.4 °C -0.4 °C 1023.2 hPa West 24.1 km/h 24.1 km/h 62 % 0.0 mm 0.0 W/m2 CLR
00:22 6.3 °C -0.4 °C 1023.2 hPa West 18.5 km/h 18.5 km/h 62 % 0.0 mm 0.0 W/m2 CLR
00:28 6.3 °C -0.4 °C 1023.2 hPa West 16.7 km/h 16.7 km/h 62 % 0.0 mm 0.0 W/m2 CLR
00:33 6.2 °C -0.6 °C 1023.2 hPa West 22.2 km/h 22.2 km/h 62 % 0.0 mm 0.0 W/m2 CLR
00:38 6.1 °C -0.6 °C 1023.2 hPa WNW 19.3 km/h 19.3 km/h 62 % 0.0 mm 0.0 W/m2 CLR
00:43 6.1 °C -0.7 °C 1022.9 hPa WNW 20.9 km/h 20.9 km/h 62 % 0.0 mm 0.0 W/m2 CLR
00:48 6.2 °C -0.6 °C 1022.9 hPa WNW 24.1 km/h 24.1 km/h 62 % 0.0 mm 0.0 W/m2 CLR
00:53 6.2 °C -0.5 °C 1022.9 hPa West 27.8 km/h 27.8 km/h 62 % 0.0 mm 0.0 W/m2 CLR
00:58 6.2 °C -0.8 °C 1022.9 hPa West 24.1 km/h 24.1 km/h 61 % 0.0 mm 0.0 W/m2 CLR
01:03 6.2 °C -0.8 °C 1022.9 hPa West 19.3 km/h 19.3 km/h 61 % 0.0 mm 0.0 W/m2 CLR
01:08 6.2 °C -1.1 °C 1022.9 hPa West 24.1 km/h 24.1 km/h 60 % 0.0 mm 0.0 W/m2 CLR
01:13 6.2 °C -1.1 °C 1022.6 hPa West 29.6 km/h 29.6 km/h 60 % 0.0 mm 0.0 W/m2 CLR
01:18 6.1 °C -1.3 °C 1022.6 hPa West 20.4 km/h 20.4 km/h 59 % 0.0 mm 0.0 W/m2 CLR
01:23 6.1 °C -1.4 °C 1022.6 hPa West 25.9 km/h 25.9 km/h 59 % 0.0 mm 0.0 W/m2 CLR
01:28 6.2 °C -1.5 °C 1022.6 hPa West 20.4 km/h 20.4 km/h 58 % 0.0 mm 0.0 W/m2 CLR
01:33 6.1 °C -1.6 °C 1022.6 hPa West 20.9 km/h 20.9 km/h 58 % 0.0 mm 0.0 W/m2 CLR
01:38 6.1 °C -1.6 °C 1022.6 hPa West 22.2 km/h 22.2 km/h 58 % 0.0 mm 0.0 W/m2 CLR
01:43 6.1 °C -1.6 °C 1022.6 hPa West 27.8 km/h 27.8 km/h 58 % 0.0 mm 0.0 W/m2 CLR
01:48 6.1 °C -1.6 °C 1022.6 hPa West 20.4 km/h 20.4 km/h 58 % 0.0 mm 0.0 W/m2 CLR
01:53 6.1 °C -1.6 °C 1022.6 hPa West 20.4 km/h 20.4 km/h 58 % 0.0 mm 0.0 W/m2 CLR
01:58 5.9 °C -1.5 °C 1022.6 hPa WNW 18.5 km/h 18.5 km/h 59 % 0.0 mm 0.0 W/m2 CLR
02:03 5.7 °C -1.7 °C 1022.6 hPa WNW 18.5 km/h 18.5 km/h 59 % 0.0 mm 0.0 W/m2 CLR
02:08 5.7 °C -1.7 °C 1022.6 hPa WNW 16.7 km/h 16.7 km/h 59 % 0.0 mm 0.0 W/m2 CLR
02:13 5.6 °C -1.8 °C 1022.6 hPa WNW 18.5 km/h 18.5 km/h 59 % 0.0 mm 0.0 W/m2 CLR
02:18 5.6 °C -2.0 °C 1022.6 hPa West 16.7 km/h 16.7 km/h 58 % 0.0 mm 0.0 W/m2 CLR
02:23 5.6 °C -2.0 °C 1022.2 hPa West 7.4 km/h 7.4 km/h 58 % 0.0 mm 0.0 W/m2 CLR
02:28 5.6 °C -2.1 °C 1022.2 hPa WSW 1.6 km/h   58 % 0.0 mm 0.0 W/m2 CLR
02:33 5.5 °C -2.3 °C 1022.6 hPa West 5.6 km/h   57 % 0.0 mm 0.0 W/m2 CLR
02:38 5.5 °C -2.3 °C 1022.6 hPa Calm     57 % 0.0 mm 0.0 W/m2 CLR
02:43 5.4 °C -2.4 °C 1022.2 hPa Calm     57 % 0.0 mm 0.0 W/m2 CLR
02:49 5.4 °C -2.4 °C 1022.2 hPa Calm     57 % 0.0 mm 0.0 W/m2 CLR
02:54 5.3 °C -2.3 °C 1022.2 hPa Calm     58 % 0.0 mm 0.0 W/m2 CLR
02:59 5.2 °C -2.4 °C 1022.2 hPa WNW 4.8 km/h 4.8 km/h 58 % 0.0 mm 0.0 W/m2 CLR
03:04 5.1 °C -2.6 °C 1022.2 hPa West 9.3 km/h 9.3 km/h 58 % 0.0 mm 0.0 W/m2 CLR
03:09 5.1 °C -2.3 °C 1022.6 hPa West 5.6 km/h 5.6 km/h 59 % 0.0 mm 0.0 W/m2 CLR
03:14 5.0 °C -2.3 °C 1022.2 hPa Calm     59 % 0.0 mm 0.0 W/m2 CLR
03:19 4.9 °C -2.4 °C 1022.2 hPa Calm     59 % 0.0 mm 0.0 W/m2 CLR
03:24 4.8 °C -2.3 °C 1022.2 hPa Calm     60 % 0.0 mm 0.0 W/m2 CLR
03:29 4.7 °C -2.4 °C 1022.2 hPa Calm     60 % 0.0 mm 0.0 W/m2 CLR
03:34 4.7 °C -2.4 °C 1021.9 hPa Calm     60 % 0.0 mm 0.0 W/m2 CLR
03:39 4.6 °C -2.3 °C 1021.9 hPa Calm     61 % 0.0 mm 0.0 W/m2 CLR
03:44 4.4 °C -2.3 °C 1021.9 hPa Calm     62 % 0.0 mm 0.0 W/m2 CLR
03:49 4.2 °C -2.5 °C 1021.9 hPa Calm     62 % 0.0 mm 0.0 W/m2 CLR
03:54 4.1 °C -2.4 °C 1021.9 hPa Calm     63 % 0.0 mm 0.0 W/m2 CLR
03:59 4.0 °C -2.4 °C 1021.9 hPa Calm     63 % 0.0 mm 0.0 W/m2 CLR
04:04 4.1 °C -2.4 °C 1021.9 hPa Calm     63 % 0.0 mm 0.0 W/m2 CLR
04:09 4.0 °C -2.6 °C 1021.9 hPa Calm     62 % 0.0 mm 0.0 W/m2 CLR
04:14 3.9 °C -2.5 °C 1021.9 hPa Calm     63 % 0.0 mm 0.0 W/m2 CLR
04:19 3.7 °C -2.5 °C 1021.9 hPa Calm     64 % 0.0 mm 0.0 W/m2 CLR
04:24 3.6 °C -2.6 °C 1021.9 hPa Calm     64 % 0.0 mm 0.0 W/m2 CLR
04:29 3.5 °C -2.7 °C 1021.9 hPa Calm     64 % 0.0 mm 0.0 W/m2 CLR
04:34 3.4 °C -2.6 °C 1021.9 hPa Calm     65 % 0.0 mm 0.0 W/m2 CLR
04:39 3.2 °C -2.7 °C 1021.9 hPa Calm     65 % 0.0 mm 0.0 W/m2 CLR
04:44 3.3 °C -2.6 °C 1021.9 hPa Calm     65 % 0.0 mm 0.0 W/m2 CLR
04:49 3.8 °C -2.8 °C 1021.9 hPa WNW 14.8 km/h 14.8 km/h 62 % 0.0 mm 0.0 W/m2 CLR
04:54 4.4 °C -2.9 °C 1021.9 hPa WNW 18.5 km/h 18.5 km/h 59 % 0.0 mm 0.0 W/m2 CLR
04:59 4.7 °C -2.9 °C 1021.9 hPa WNW 16.1 km/h 16.1 km/h 58 % 0.0 mm 0.0 W/m2 CLR
05:04 4.7 °C -3.1 °C 1021.6 hPa WNW 22.2 km/h 22.2 km/h 57 % 0.0 mm 0.0 W/m2 CLR
05:09 4.9 °C -3.2 °C 1021.9 hPa NW 27.8 km/h 27.8 km/h 56 % 0.0 mm 0.0 W/m2 CLR
05:14 4.9 °C -3.1 °C 1021.6 hPa NW 29.6 km/h 29.6 km/h 56 % 0.0 mm 0.0 W/m2 CLR
05:20 5.0 °C -3.3 °C 1021.6 hPa WNW 24.1 km/h 24.1 km/h 55 % 0.0 mm 0.0 W/m2 CLR
05:25 5.0 °C -3.3 °C 1021.6 hPa WNW 20.4 km/h 20.4 km/h 55 % 0.0 mm 0.0 W/m2 CLR
05:30 5.0 °C -3.3 °C 1021.6 hPa WNW 16.7 km/h 16.7 km/h 55 % 0.0 mm 0.0 W/m2 CLR
05:35 4.9 °C -3.4 °C 1021.9 hPa WNW 11.1 km/h 11.1 km/h 55 % 0.0 mm 0.0 W/m2 CLR
05:40 4.8 °C -3.3 °C 1021.9 hPa West 11.1 km/h 11.1 km/h 56 % 0.0 mm 0.0 W/m2 CLR
05:45 4.7 °C -3.4 °C 1021.6 hPa West 11.1 km/h 11.1 km/h 56 % 0.0 mm 0.0 W/m2 CLR
05:50 4.6 °C -3.4 °C 1021.6 hPa West 14.8 km/h 14.8 km/h 56 % 0.0 mm 0.0 W/m2 CLR
05:55 4.5 °C -3.3 °C 1021.6 hPa WNW 9.3 km/h 9.3 km/h 57 % 0.0 mm 0.0 W/m2 CLR
06:00 4.4 °C -3.4 °C 1021.6 hPa NW 11.1 km/h 11.1 km/h 57 % 0.0 mm 0.0 W/m2 CLR
06:05 4.4 °C -3.4 °C 1021.6 hPa NW 11.1 km/h 11.1 km/h 57 % 0.0 mm 0.0 W/m2 CLR
06:10 4.4 °C -3.4 °C 1021.6 hPa NW 18.5 km/h 18.5 km/h 57 % 0.0 mm 0.0 W/m2 CLR
06:15 4.4 °C -3.4 °C 1021.6 hPa NW 11.3 km/h 11.3 km/h 57 % 0.0 mm 0.0 W/m2 CLR
06:20 4.2 °C -3.3 °C 1021.9 hPa NW 16.1 km/h 16.1 km/h 58 % 0.0 mm 0.0 W/m2 CLR
06:25 4.1 °C -3.4 °C 1021.9 hPa WNW 22.2 km/h 22.2 km/h 58 % 0.0 mm 0.0 W/m2 CLR
06:30 4.2 °C -3.6 °C 1021.9 hPa WNW 18.5 km/h 18.5 km/h 57 % 0.0 mm 0.0 W/m2 CLR
06:35 4.3 °C -3.5 °C 1021.9 hPa WNW 11.1 km/h 11.1 km/h 57 % 0.0 mm 0.0 W/m2 CLR
06:40 4.2 °C -3.4 °C 1021.6 hPa WNW 7.4 km/h 7.4 km/h 58 % 0.0 mm 0.0 W/m2 CLR
06:45 4.1 °C -3.5 °C 1021.9 hPa WNW 11.1 km/h 11.1 km/h 58 % 0.0 mm 0.0 W/m2 CLR
06:50 3.9 °C -3.3 °C 1021.9 hPa WNW 14.5 km/h 14.5 km/h 59 % 0.0 mm 0.0 W/m2 CLR
06:55 3.9 °C -3.3 °C 1021.9 hPa WNW 16.7 km/h 16.7 km/h 59 % 0.0 mm 0.0 W/m2 CLR
07:00 4.1 °C -3.5 °C 1021.6 hPa WNW 14.5 km/h 14.5 km/h 58 % 0.0 mm 0.0 W/m2 CLR
07:05 4.2 °C -3.4 °C 1021.9 hPa West 16.7 km/h 16.7 km/h 58 % 0.0 mm 0.0 W/m2 CLR
07:10 4.2 °C -3.6 °C 1021.9 hPa West 14.8 km/h 14.8 km/h 57 % 0.0 mm 0.0 W/m2 CLR
07:15 4.1 °C -3.7 °C 1021.9 hPa West 16.7 km/h 16.7 km/h 57 % 0.0 mm 0.0 W/m2 CLR
07:20 4.1 °C -3.4 °C 1021.9 hPa West 16.7 km/h 16.7 km/h 58 % 0.0 mm 0.0 W/m2 CLR
07:25 4.1 °C -3.5 °C 1021.9 hPa West 18.5 km/h 18.5 km/h 58 % 0.0 mm 0.0 W/m2 CLR
07:30 4.0 °C -3.6 °C 1021.9 hPa WNW 20.4 km/h 20.4 km/h 58 % 0.0 mm 0.0 W/m2 CLR
07:35 4.0 °C -3.3 °C 1021.9 hPa West 18.5 km/h 18.5 km/h 59 % 0.0 mm 0.0 W/m2 CLR
07:40 3.9 °C -3.4 °C 1021.9 hPa West 22.2 km/h 22.2 km/h 59 % 0.0 mm 0.0 W/m2 CLR
07:45 3.9 °C -3.2 °C 1021.9 hPa West 27.8 km/h 27.8 km/h 60 % 0.0 mm 0.0 W/m2 CLR
07:50 3.8 °C -3.3 °C 1021.9 hPa West 18.5 km/h 18.5 km/h 60 % 0.0 mm 0.0 W/m2 CLR
07:55 3.7 °C -3.1 °C 1021.9 hPa West 20.4 km/h 20.4 km/h 61 % 0.0 mm 0.0 W/m2 CLR
08:00 3.7 °C -2.9 °C 1021.9 hPa West 20.4 km/h 20.4 km/h 62 % 0.0 mm 0.0 W/m2 CLR
08:05 3.8 °C -3.1 °C 1021.9 hPa West 25.9 km/h 25.9 km/h 61 % 0.0 mm 0.0 W/m2 CLR
08:10 3.8 °C -3.0 °C 1021.9 hPa WNW 22.2 km/h 22.2 km/h 61 % 0.0 mm 0.0 W/m2 OVC
08:15 3.8 °C -3.0 °C 1021.9 hPa WNW 18.5 km/h 18.5 km/h 61 % 0.0 mm 0.0 W/m2 OVC
08:20 3.7 °C -3.1 °C 1021.9 hPa West 18.5 km/h 18.5 km/h 61 % 0.0 mm 0.0 W/m2 OVC
08:25 3.7 °C -3.1 °C 1021.9 hPa WNW 18.5 km/h 18.5 km/h 61 % 0.0 mm 5.0 W/m2 BKN
08:30 3.6 °C -3.0 °C 1021.9 hPa WNW 22.5 km/h 22.5 km/h 62 % 0.0 mm 9.0 W/m2 BKN
08:35 3.7 °C -2.9 °C 1021.9 hPa WNW 17.7 km/h 17.7 km/h 62 % 0.0 mm 11.0 W/m2 BKN
08:40 3.8 °C -3.2 °C 1021.9 hPa WNW 16.7 km/h 16.7 km/h 60 % 0.0 mm 14.0 W/m2 BKN
08:45 3.9 °C -3.1 °C 1021.9 hPa West 16.7 km/h 16.7 km/h 60 % 0.0 mm 18.0 W/m2 BKN
08:50 4.1 °C -3.2 °C 1021.9 hPa West 14.8 km/h 14.8 km/h 59 % 0.0 mm 23.0 W/m2 BKN
08:55 4.1 °C -3.2 °C 1021.9 hPa West 18.5 km/h 18.5 km/h 59 % 0.0 mm 33.0 W/m2 BKN
09:00 4.2 °C -3.1 °C 1021.9 hPa West 17.7 km/h 17.7 km/h 59 % 0.0 mm 40.0 W/m2 BKN
09:05 4.3 °C -3.3 °C 1022.2 hPa WNW 14.5 km/h 14.5 km/h 58 % 0.0 mm 56.0 W/m2 BKN
09:10 4.3 °C -3.2 °C 1021.9 hPa West 16.7 km/h 16.7 km/h 58 % 0.0 mm 65.0 W/m2 BKN
09:15 4.4 °C -3.2 °C 1021.9 hPa WNW 24.1 km/h 24.1 km/h 58 % 0.0 mm 69.0 W/m2 BKN
09:20 4.5 °C -3.1 °C 1022.2 hPa West 13.0 km/h 13.0 km/h 58 % 0.0 mm 97.0 W/m2 BKN
09:25 4.6 °C -3.0 °C 1022.2 hPa West 13.0 km/h 13.0 km/h 58 % 0.0 mm 109.0 W/m2 BKN
09:30 4.6 °C -2.9 °C 1022.2 hPa WNW 14.8 km/h 14.8 km/h 58 % 0.0 mm 125.0 W/m2 BKN
09:31 4.6 °C -2.9 °C 1022.2 hPa WNW 14.8 km/h 14.8 km/h 58 % 0.0 mm 127.0 W/m2 BKN
09:36 4.7 °C -2.9 °C 1022.2 hPa WNW 18.5 km/h 18.5 km/h 58 % 0.0 mm 141.0 W/m2 BKN
09:41 4.6 °C -2.9 °C 1022.2 hPa WNW 24.1 km/h 24.1 km/h 58 % 0.0 mm 100.0 W/m2 SCT
09:46 4.7 °C -2.8 °C 1021.9 hPa WNW 18.5 km/h 18.5 km/h 58 % 0.0 mm 169.0 W/m2 SCT
09:51 4.8 °C -2.8 °C 1022.2 hPa WNW 20.4 km/h 20.4 km/h 58 % 0.0 mm 134.0 W/m2 SCT
09:56 4.7 °C -2.8 °C 1022.2 hPa WNW 14.8 km/h 14.8 km/h 58 % 0.0 mm 171.0 W/m2 BKN
10:01 4.8 °C -2.6 °C 1022.2 hPa NW 20.4 km/h 20.4 km/h 59 % 0.0 mm 223.0 W/m2 BKN
10:06 4.8 °C -2.3 °C 1022.2 hPa WNW 18.5 km/h 18.5 km/h 60 % 0.0 mm 237.0 W/m2 SCT
10:11 4.8 °C -2.3 °C 1022.2 hPa NW 18.5 km/h 18.5 km/h 60 % 0.0 mm 251.0 W/m2 SCT
10:16 4.8 °C -2.3 °C 1022.2 hPa NW 18.5 km/h 18.5 km/h 60 % 0.0 mm 267.0 W/m2 SCT
10:21 4.9 °C -2.4 °C 1022.2 hPa WNW 20.4 km/h 20.4 km/h 59 % 0.0 mm 279.0 W/m2 SCT
10:26 5.0 °C -2.1 °C 1022.2 hPa WNW 16.1 km/h 16.1 km/h 60 % 0.0 mm 290.0 W/m2 SCT
10:31 5.1 °C -2.3 °C 1022.2 hPa WNW 11.1 km/h 11.1 km/h 59 % 0.0 mm 302.0 W/m2 SCT
10:36 5.2 °C -2.2 °C 1022.2 hPa WNW 16.7 km/h 16.7 km/h 59 % 0.0 mm 313.0 W/m2 SCT
10:41 5.3 °C -1.8 °C 1022.2 hPa NW 11.1 km/h 11.1 km/h 60 % 0.0 mm 325.0 W/m2 FEW
10:46 5.4 °C -2.0 °C 1022.2 hPa NW 16.7 km/h 16.7 km/h 59 % 0.0 mm 332.0 W/m2 FEW
10:51 5.3 °C -1.8 °C 1022.2 hPa NW 13.0 km/h 13.0 km/h 60 % 0.0 mm 345.0 W/m2 CLR
10:56 5.4 °C -1.7 °C 1022.2 hPa NW 9.7 km/h 9.7 km/h 60 % 0.0 mm 355.0 W/m2 CLR
11:01 5.6 °C -1.6 °C 1021.9 hPa NW 18.5 km/h 18.5 km/h 60 % 0.0 mm 367.0 W/m2 CLR
11:06 5.6 °C -1.8 °C 1021.9 hPa NW 11.1 km/h 11.1 km/h 59 % 0.0 mm 376.0 W/m2 CLR
11:11 5.8 °C -1.3 °C 1021.9 hPa NW 13.0 km/h 13.0 km/h 60 % 0.0 mm 383.0 W/m2 CLR
11:16 5.9 °C -1.8 °C 1021.9 hPa NW 18.5 km/h 18.5 km/h 58 % 0.0 mm 392.0 W/m2 CLR
11:21 6.0 °C -1.7 °C 1021.9 hPa NW 14.8 km/h 14.8 km/h 58 % 0.0 mm 404.0 W/m2 CLR
11:26 6.2 °C -1.5 °C 1021.9 hPa NW 13.0 km/h 13.0 km/h 58 % 0.0 mm 413.0 W/m2 CLR
11:31 6.4 °C -1.8 °C 1021.9 hPa West 16.1 km/h 16.1 km/h 56 % 0.0 mm 420.0 W/m2 CLR
11:36 6.5 °C -1.2 °C 1021.9 hPa WNW 13.0 km/h 13.0 km/h 58 % 0.0 mm 427.0 W/m2 CLR
11:41 6.6 °C -2.1 °C 1021.9 hPa WNW 17.7 km/h 17.7 km/h 54 % 0.0 mm 434.0 W/m2 CLR
11:46 6.6 °C -2.1 °C 1021.6 hPa WNW 24.1 km/h 24.1 km/h 54 % 0.0 mm 441.0 W/m2 CLR
11:51 6.5 °C -2.4 °C 1021.6 hPa West 22.2 km/h 22.2 km/h 53 % 0.0 mm 448.0 W/m2 CLR
11:56 6.6 °C -2.1 °C 1021.6 hPa West 11.1 km/h 11.1 km/h 54 % 0.0 mm 454.0 W/m2 CLR
12:01 6.7 °C -1.4 °C 1021.6 hPa NW 18.5 km/h 18.5 km/h 56 % 0.0 mm 457.0 W/m2 CLR
12:06 6.6 °C -1.8 °C 1021.6 hPa NW 18.5 km/h 18.5 km/h 55 % 0.0 mm 466.0 W/m2 CLR
12:14 6.8 °C -1.2 °C 1021.2 hPa NW 19.3 km/h 19.3 km/h 57 % 0.0 mm 473.0 W/m2 CLR
12:19 6.7 °C -1.5 °C 1021.2 hPa WNW 18.5 km/h 18.5 km/h 56 % 0.0 mm 475.0 W/m2 OVC
12:24 6.7 °C -1.3 °C 1021.2 hPa NW 14.8 km/h 14.8 km/h 57 % 0.0 mm 476.0 W/m2 CLR
12:29 6.8 °C -1.1 °C 1020.9 hPa WNW 18.5 km/h 18.5 km/h 57 % 0.0 mm 478.0 W/m2 OVC
12:34 6.8 °C -1.3 °C 1020.9 hPa NW 18.5 km/h 18.5 km/h 56 % 0.0 mm 478.0 W/m2 OVC
12:39 6.8 °C -1.3 °C 1020.9 hPa NW 18.5 km/h 18.5 km/h 56 % 0.0 mm 478.0 W/m2 OVC
12:44 7.1 °C -1.4 °C 1020.9 hPa NW 12.9 km/h 12.9 km/h 55 % 0.0 mm 492.0 W/m2 CLR
12:49 7.2 °C -1.2 °C 1020.9 hPa NNW 13.0 km/h 13.0 km/h 55 % 0.0 mm 494.0 W/m2 CLR
12:54 7.3 °C -1.4 °C 1020.9 hPa NW 8.0 km/h 8.0 km/h 54 % 0.0 mm 492.0 W/m2 CLR
12:59 7.5 °C -0.9 °C 1020.5 hPa NW 25.9 km/h 25.9 km/h 55 % 0.0 mm 497.0 W/m2 CLR
13:04 7.6 °C -0.9 °C 1020.5 hPa NNW 20.4 km/h 20.4 km/h 55 % 0.0 mm 496.0 W/m2 CLR
13:09 7.6 °C -0.9 °C 1020.5 hPa NNW 13.0 km/h 13.0 km/h 55 % 0.0 mm 499.0 W/m2 CLR
13:14 7.7 °C -1.0 °C 1020.2 hPa NW 12.9 km/h 12.9 km/h 54 % 0.0 mm 497.0 W/m2 CLR
13:19 7.8 °C -1.2 °C 1020.2 hPa NW 14.8 km/h 14.8 km/h 53 % 0.0 mm 497.0 W/m2 CLR
13:24 7.8 °C -0.9 °C 1020.2 hPa Calm     54 % 0.0 mm 499.0 W/m2 CLR
13:29 8.0 °C -1.0 °C 1019.9 hPa Calm     53 % 0.0 mm 499.0 W/m2 CLR
13:34 8.2 °C -0.6 °C 1019.9 hPa NW 13.0 km/h 13.0 km/h 54 % 0.0 mm 503.0 W/m2 CLR
13:39 8.5 °C -0.6 °C 1019.9 hPa WNW 14.8 km/h 14.8 km/h 53 % 0.0 mm 497.0 W/m2 CLR
13:45 8.5 °C -0.8 °C 1019.9 hPa NW 11.1 km/h 11.1 km/h 52 % 0.0 mm 496.0 W/m2 CLR
13:50 8.4 °C -0.9 °C 1019.5 hPa NW 14.8 km/h 15.0 km/h 52 % 0.0 mm 490.0 W/m2 CLR
13:55 8.4 °C -0.2 °C 1019.5 hPa NNW 14.5 km/h 14.5 km/h 55 % 0.0 mm 490.0 W/m2 CLR
14:00 8.3 °C -0.2 °C 1019.5 hPa NW 9.3 km/h   55 % 0.0 mm 482.0 W/m2 CLR
14:05 8.6 °C -0.2 °C 1019.5 hPa Calm     54 % 0.0 mm 478.0 W/m2 CLR
14:10 8.6 °C -0.8 °C 1019.2 hPa NNW 16.7 km/h 16.7 km/h 52 % 0.0 mm 475.0 W/m2 CLR
14:15 8.6 °C -0.8 °C 1019.2 hPa NW 18.5 km/h 18.5 km/h 52 % 0.0 mm 468.0 W/m2 CLR
14:20 8.7 °C -0.6 °C 1019.2 hPa NW 9.3 km/h   52 % 0.0 mm 464.0 W/m2 CLR
14:25 8.9 °C -0.4 °C 1019.2 hPa NW 16.7 km/h 16.7 km/h 52 % 0.0 mm 457.0 W/m2 CLR
14:30 8.9 °C -0.7 °C 1019.2 hPa NW 14.8 km/h 14.8 km/h 51 % 0.0 mm 454.0 W/m2 CLR
14:35 8.8 °C -0.3 °C 1018.8 hPa NNW 16.7 km/h 16.7 km/h 53 % 0.0 mm 450.0 W/m2 CLR
14:40 8.8 °C -0.3 °C 1018.8 hPa NNW 18.5 km/h 18.5 km/h 53 % 0.0 mm 448.0 W/m2 CLR
14:45 8.7 °C -0.7 °C 1018.8 hPa NW 13.0 km/h 13.0 km/h 52 % 0.0 mm 441.0 W/m2 CLR
14:50 8.7 °C -0.7 °C 1018.8 hPa NW 13.0 km/h 13.0 km/h 52 % 0.0 mm 425.0 W/m2 CLR
14:55 8.8 °C -0.1 °C 1018.8 hPa NW 11.3 km/h 11.3 km/h 54 % 0.0 mm 418.0 W/m2 CLR
15:00 8.8 °C -0.5 °C 1018.8 hPa NW 18.5 km/h 18.5 km/h 52 % 0.0 mm 411.0 W/m2 CLR
15:05 8.8 °C -1.1 °C 1018.8 hPa NW 18.5 km/h 18.5 km/h 50 % 0.0 mm 404.0 W/m2 CLR
15:10 8.7 °C -0.9 °C 1018.8 hPa NW 20.4 km/h 20.4 km/h 51 % 0.0 mm 396.0 W/m2 CLR
15:15 8.8 °C -0.8 °C 1018.5 hPa NW 14.8 km/h 14.8 km/h 51 % 0.0 mm 390.0 W/m2 CLR
15:20 8.9 °C -0.7 °C 1018.5 hPa NW 7.4 km/h 8.0 km/h 51 % 0.0 mm 383.0 W/m2 CLR
15:25 9.0 °C -0.9 °C 1018.5 hPa NW 13.0 km/h 13.0 km/h 50 % 0.0 mm 364.0 W/m2 CLR
15:30 9.1 °C -0.6 °C 1018.5 hPa NW 11.3 km/h 11.3 km/h 51 % 0.0 mm 355.0 W/m2 CLR
15:35 9.2 °C -0.7 °C 1018.5 hPa NW 14.8 km/h 14.8 km/h 50 % 0.0 mm 348.0 W/m2 CLR
15:40 9.1 °C -1.3 °C 1018.5 hPa NW 18.5 km/h 18.5 km/h 48 % 0.0 mm 334.0 W/m2 CLR
15:45 9.0 °C -1.2 °C 1018.5 hPa NW 11.1 km/h 11.1 km/h 49 % 0.0 mm 329.0 W/m2 CLR
15:50 9.0 °C -1.4 °C 1018.5 hPa NW 16.7 km/h 16.7 km/h 48 % 0.0 mm 320.0 W/m2 CLR
15:55 8.9 °C -1.2 °C 1018.5 hPa NW 19.3 km/h 19.3 km/h 49 % 0.0 mm 309.0 W/m2 CLR
16:00 8.9 °C -1.8 °C 1018.5 hPa NNW 19.3 km/h 19.3 km/h 47 % 0.0 mm 295.0 W/m2 CLR
16:05 8.9 °C -1.5 °C 1018.5 hPa NW 18.5 km/h 18.5 km/h 48 % 0.0 mm 283.0 W/m2 CLR
16:10 8.9 °C -1.5 °C 1018.5 hPa NW 18.5 km/h 18.5 km/h 48 % 0.0 mm 272.0 W/m2 CLR
16:15 9.0 °C -1.7 °C 1018.5 hPa NNW 18.5 km/h 18.5 km/h 47 % 0.0 mm 257.0 W/m2 CLR
16:20 9.0 °C -1.4 °C 1018.5 hPa NNW 13.0 km/h 13.0 km/h 48 % 0.0 mm 241.0 W/m2 CLR
16:25 9.0 °C -2.0 °C 1018.5 hPa NW 16.7 km/h 16.7 km/h 46 % 0.0 mm 229.0 W/m2 CLR
16:30 9.1 °C -1.3 °C 1018.5 hPa WNW 13.0 km/h 13.0 km/h 48 % 0.0 mm 211.0 W/m2 CLR
16:35 9.2 °C -1.9 °C 1018.5 hPa WNW 16.7 km/h 16.7 km/h 46 % 0.0 mm 199.0 W/m2 CLR
16:40 9.0 °C -2.3 °C 1018.5 hPa WNW 11.1 km/h 11.1 km/h 45 % 0.0 mm 181.0 W/m2 CLR
16:45 9.1 °C -2.6 °C 1018.5 hPa WNW 5.6 km/h 5.6 km/h 44 % 0.0 mm 167.0 W/m2 CLR
16:50 9.1 °C -2.2 °C 1018.5 hPa NW 5.6 km/h 5.6 km/h 45 % 0.0 mm 149.0 W/m2 CLR
16:55 9.0 °C -2.3 °C 1018.5 hPa NW 9.3 km/h 9.3 km/h 45 % 0.0 mm 135.0 W/m2 CLR
17:00 8.9 °C -1.8 °C 1018.5 hPa NW 1.9 km/h 1.9 km/h 47 % 0.0 mm 118.0 W/m2 CLR
17:05 9.1 °C -2.6 °C 1018.5 hPa Calm     44 % 0.0 mm 104.0 W/m2 CLR
17:10 9.1 °C -2.2 °C 1018.5 hPa Calm     45 % 0.0 mm 91.0 W/m2 CLR
17:15 9.1 °C -1.9 °C 1018.5 hPa Calm     46 % 0.0 mm 77.0 W/m2 FEW
17:20 9.0 °C -2.6 °C 1018.5 hPa Calm     44 % 0.0 mm 58.0 W/m2 SCT
17:25 8.9 °C -2.4 °C 1018.8 hPa Calm     45 % 0.0 mm 53.0 W/m2 SCT
17:30 8.9 °C -2.1 °C 1018.8 hPa Calm     46 % 0.0 mm 40.0 W/m2 BKN
17:35 8.7 °C -2.6 °C 1018.8 hPa Calm     45 % 0.0 mm 32.0 W/m2 BKN
17:40 8.6 °C -1.8 °C 1018.8 hPa Calm     48 % 0.0 mm 23.0 W/m2 BKN
17:45 8.3 °C -1.8 °C 1018.8 hPa Calm     49 % 0.0 mm 16.0 W/m2 BKN
17:50 8.1 °C -2.8 °C 1018.8 hPa Calm     46 % 0.0 mm 14.0 W/m2 BKN
17:55 8.0 °C -2.1 °C 1018.8 hPa Calm     49 % 0.0 mm 11.0 W/m2 BKN
17:56 7.9 °C -2.1 °C 1018.8 hPa Calm     49 % 0.0 mm 11.0 W/m2 BKN
18:01 7.8 °C -2.3 °C 1018.8 hPa Calm     49 % 0.0 mm 9.0 W/m2 BKN
18:06 7.6 °C -1.9 °C 1018.8 hPa Calm     51 % 0.0 mm 5.0 W/m2 OVC
18:11 7.3 °C -1.9 °C 1019.2 hPa Calm     52 % 0.0 mm 0.0 W/m2 OVC
18:16 7.0 °C -1.9 °C 1019.2 hPa Calm     53 % 0.0 mm 0.0 W/m2 OVC
18:21 6.8 °C -2.2 °C 1019.2 hPa Calm     53 % 0.0 mm 0.0 W/m2 CLR
18:26 6.6 °C -1.6 °C 1019.2 hPa Calm     56 % 0.0 mm 0.0 W/m2 CLR
18:31 6.1 °C -1.3 °C 1019.2 hPa Calm     59 % 0.0 mm 0.0 W/m2 CLR
18:36 5.7 °C -1.3 °C 1019.2 hPa Calm     61 % 0.0 mm 0.0 W/m2 CLR
18:41 5.3 °C -1.4 °C 1019.2 hPa Calm     62 % 0.0 mm 0.0 W/m2 CLR
18:46 4.9 °C -1.3 °C 1019.2 hPa Calm     64 % 0.0 mm 0.0 W/m2 CLR
18:51 4.7 °C -0.9 °C 1019.5 hPa Calm     67 % 0.0 mm 0.0 W/m2 CLR
18:56 4.3 °C -0.8 °C 1019.2 hPa Calm     69 % 0.0 mm 0.0 W/m2 CLR
19:01 4.1 °C -0.9 °C 1019.5 hPa Calm     70 % 0.0 mm 0.0 W/m2 CLR
19:06 3.8 °C -0.9 °C 1019.5 hPa Calm     71 % 0.0 mm 0.0 W/m2 CLR
19:11 3.6 °C -1.2 °C 1019.5 hPa Calm     71 % 0.0 mm 0.0 W/m2 CLR
19:16 3.4 °C -1.2 °C 1019.5 hPa Calm     72 % 0.0 mm 0.0 W/m2 CLR
19:21 3.2 °C -1.2 °C 1019.5 hPa Calm     73 % 0.0 mm 0.0 W/m2 CLR
19:26 2.8 °C -1.4 °C 1019.5 hPa Calm     74 % 0.0 mm 0.0 W/m2 CLR
19:31 2.4 °C -1.6 °C 1019.9 hPa Calm     75 % 0.0 mm 0.0 W/m2 CLR
19:36 2.3 °C -1.5 °C 1019.9 hPa Calm     76 % 0.0 mm 0.0 W/m2 CLR
19:41 2.2 °C -1.4 °C 1019.9 hPa Calm     77 % 0.0 mm 0.0 W/m2 CLR
19:46 2.1 °C -1.5 °C 1019.9 hPa Calm     77 % 0.0 mm 0.0 W/m2 CLR
19:51 2.0 °C -1.4 °C 1019.9 hPa Calm     78 % 0.0 mm 0.0 W/m2 CLR
19:56 1.9 °C -1.6 °C 1020.2 hPa Calm     78 % 0.0 mm 0.0 W/m2 CLR
20:01 1.7 °C -1.6 °C 1020.2 hPa Calm     79 % 0.0 mm 0.0 W/m2 CLR
20:06 1.6 °C -1.8 °C 1020.2 hPa Calm     78 % 0.0 mm 0.0 W/m2 CLR
20:11 1.6 °C -1.9 °C 1020.2 hPa Calm     78 % 0.0 mm 0.0 W/m2 CLR
20:16 1.5 °C -1.7 °C 1020.2 hPa Calm     79 % 0.0 mm 0.0 W/m2 CLR
20:21 1.4 °C -1.8 °C 1020.5 hPa Calm     79 % 0.0 mm 0.0 W/m2 CLR
20:26 1.3 °C -1.9 °C 1020.5 hPa Calm     79 % 0.0 mm 0.0 W/m2 CLR
20:31 1.2 °C -2.0 °C 1020.5 hPa Calm     79 % 0.0 mm 0.0 W/m2 CLR
20:36 1.2 °C -2.0 °C 1020.5 hPa Calm     79 % 0.0 mm 0.0 W/m2 CLR
20:41 1.3 °C -1.9 °C 1020.5 hPa Calm     79 % 0.0 mm 0.0 W/m2 CLR
20:46 1.4 °C -2.1 °C 1020.5 hPa Calm     78 % 0.0 mm 0.0 W/m2 CLR
20:51 1.2 °C -2.2 °C 1020.5 hPa Calm     78 % 0.0 mm 0.0 W/m2 CLR
20:56 0.9 °C -2.3 °C 1020.5 hPa Calm     79 % 0.0 mm 0.0 W/m2 CLR
21:01 0.7 °C -2.4 °C 1020.5 hPa Calm     80 % 0.0 mm 0.0 W/m2 CLR
21:06 0.4 °C -2.3 °C 1020.5 hPa Calm     82 % 0.0 mm 0.0 W/m2 CLR
21:11 0.3 °C -2.4 °C 1020.5 hPa Calm     82 % 0.0 mm 0.0 W/m2 CLR
21:16 0.2 °C -2.5 °C 1020.9 hPa Calm     82 % 0.0 mm 0.0 W/m2 CLR
21:21 0.1 °C -2.6 °C 1020.9 hPa Calm     82 % 0.0 mm 0.0 W/m2 CLR
21:26 0.1 °C -2.4 °C 1020.9 hPa Calm     83 % 0.0 mm 0.0 W/m2 CLR
21:31 0.0 °C -2.6 °C 1020.9 hPa Calm     83 % 0.0 mm 0.0 W/m2 CLR
21:36 0.1 °C -2.4 °C 1020.9 hPa Calm     83 % 0.0 mm 0.0 W/m2 CLR
21:41 -0.1 °C -2.6 °C 1020.9 hPa Calm     83 % 0.0 mm 0.0 W/m2 CLR
21:46 -0.2 °C -2.8 °C 1020.9 hPa Calm     83 % 0.0 mm 0.0 W/m2 CLR
21:51 -0.3 °C -2.7 °C 1020.9 hPa Calm     84 % 0.0 mm 0.0 W/m2 CLR
21:56 -0.4 °C -2.8 °C 1020.9 hPa Calm     84 % 0.0 mm 0.0 W/m2 CLR
22:01 -0.4 °C -2.6 °C 1020.9 hPa Calm     85 % 0.0 mm 0.0 W/m2 CLR
22:06 -0.4 °C -2.7 °C 1020.9 hPa Calm     85 % 0.0 mm 0.0 W/m2 CLR
22:11 -0.6 °C -2.8 °C 1020.9 hPa Calm     85 % 0.0 mm 0.0 W/m2 CLR
22:16 -0.6 °C -2.8 °C 1021.2 hPa Calm     85 % 0.0 mm 0.0 W/m2 CLR
22:21 -0.6 °C -2.8 °C 1021.2 hPa Calm     85 % 0.0 mm 0.0 W/m2 CLR
22:26 -0.7 °C -2.9 °C 1021.2 hPa Calm     85 % 0.0 mm 0.0 W/m2 CLR
22:31 -0.7 °C -2.8 °C 1021.2 hPa Calm     86 % 0.0 mm 0.0 W/m2 CLR
22:36 -0.7 °C -2.7 °C 1021.2 hPa Calm     86 % 0.0 mm 0.0 W/m2 CLR
22:41 -0.6 °C -2.8 °C 1021.2 hPa Calm     85 % 0.0 mm 0.0 W/m2 CLR
22:46 -0.7 °C -2.9 °C 1021.2 hPa Calm     85 % 0.0 mm 0.0 W/m2 CLR
22:51 -0.8 °C -2.9 °C 1021.2 hPa Calm     86 % 0.0 mm 0.0 W/m2 CLR
22:52 -0.8 °C -2.9 °C 1021.2 hPa Calm     86 % 0.0 mm 0.0 W/m2 CLR
22:57 -0.9 °C -2.9 °C 1021.2 hPa Calm     86 % 0.0 mm 0.0 W/m2 CLR
23:02 -0.9 °C -3.0 °C 1021.2 hPa Calm     86 % 0.0 mm 0.0 W/m2 CLR
23:07 -1.1 °C -3.1 °C 1021.2 hPa Calm     86 % 0.0 mm 0.0 W/m2 CLR
23:12 -1.1 °C -3.0 °C 1021.2 hPa Calm     87 % 0.0 mm 0.0 W/m2 CLR
23:17 -1.2 °C -3.1 °C 1021.2 hPa Calm     87 % 0.0 mm 0.0 W/m2 CLR
23:22 -1.3 °C -3.2 °C 1021.2 hPa Calm     87 % 0.0 mm 0.0 W/m2 CLR
23:27 -1.3 °C -3.2 °C 1021.2 hPa Calm     87 % 0.0 mm 0.0 W/m2 CLR
23:32 -1.4 °C -3.3 °C 1021.2 hPa Calm     87 % 0.0 mm 0.0 W/m2 CLR
23:37 -1.4 °C -3.1 °C 1021.2 hPa Calm     88 % 0.0 mm 0.0 W/m2 CLR
23:42 -1.5 °C -3.2 °C 1021.2 hPa Calm     88 % 0.0 mm 0.0 W/m2 CLR
23:47 -1.6 °C -3.3 °C 1021.2 hPa Calm     88 % 0.0 mm 0.0 W/m2 CLR
23:52 -1.6 °C -3.3 °C 1021.2 hPa Calm     88 % 0.0 mm 0.0 W/m2 CLR
23:57 -1.6 °C -3.3 °C 1021.2 hPa Calm     88 % 0.0 mm 0.0 W/m2 CLR
Lo Temps de Massalio
Compliments of Weather Underground - 1.25 mb